createdAt,value
2022-08-26T00:03:10.931Z,30.5
2022-08-26T00:08:51.297Z,30.5
2022-08-26T00:15:01.199Z,30.5
2022-08-26T00:20:54.949Z,30.5
2022-08-26T00:26:31.804Z,30.5
2022-08-26T00:32:27.991Z,30.5
2022-08-26T00:37:32.486Z,30.5
2022-08-26T00:42:45.856Z,30.5
2022-08-26T00:48:49.233Z,30.5
2022-08-26T00:54:47.082Z,30.5
2022-08-26T01:00:24.895Z,30.4
2022-08-26T01:06:11.503Z,30.4
2022-08-26T01:11:41.139Z,30.4
2022-08-26T01:17:31.600Z,30.5
2022-08-26T01:23:21.684Z,30.5
2022-08-26T01:29:13.235Z,30.5
2022-08-26T01:35:06.174Z,30.5
2022-08-26T01:40:54.462Z,30.4
2022-08-26T01:46:46.894Z,30.4
2022-08-26T01:52:49.891Z,30.4
2022-08-26T01:59:05.569Z,30.4
2022-08-26T02:04:48.993Z,30.4
2022-08-26T02:10:47.011Z,30.4
2022-08-26T02:16:29.203Z,30.4
2022-08-26T02:22:15.604Z,30.3
2022-08-26T02:27:48.514Z,30.3
2022-08-26T02:33:42.986Z,30.3
2022-08-26T02:39:24.802Z,30.3
2022-08-26T02:45:14.659Z,30.2
2022-08-26T02:51:10.106Z,30.2
2022-08-26T02:56:37.557Z,30.2
2022-08-26T03:02:32.447Z,30.1
2022-08-26T03:08:17.778Z,30.1
2022-08-26T03:14:05.809Z,30.1
2022-08-26T03:19:59.273Z,30.1
2022-08-26T03:25:25.900Z,30.1
2022-08-26T03:31:18.323Z,30.1
2022-08-26T03:37:03.437Z,30.1
2022-08-26T03:42:30.313Z,30
2022-08-26T03:48:14.299Z,30
2022-08-26T03:54:09.756Z,30
2022-08-26T03:59:51.466Z,30
2022-08-26T04:05:40.338Z,29.9
2022-08-26T04:11:24.312Z,29.9
2022-08-26T04:16:55.545Z,29.9
2022-08-26T04:22:24.214Z,29.9
2022-08-26T04:28:23.513Z,29.9
2022-08-26T04:34:22.787Z,29.9
2022-08-26T04:40:05.705Z,29.9
2022-08-26T04:45:43.436Z,29.9
2022-08-26T04:51:34.172Z,29.9
2022-08-26T04:57:34.294Z,29.9
2022-08-26T05:03:20.638Z,29.9
2022-08-26T05:08:43.902Z,29.9
2022-08-26T05:14:35.423Z,29.8
2022-08-26T05:20:27.958Z,29.8
2022-08-26T05:26:06.640Z,29.8
2022-08-26T05:31:36.094Z,29.8
2022-08-26T05:37:30.165Z,29.8
2022-08-26T05:43:02.282Z,29.8
2022-08-26T05:49:00.976Z,29.8
2022-08-26T05:54:44.637Z,29.8
2022-08-26T06:00:39.805Z,29.8
2022-08-26T06:06:28.897Z,29.8
2022-08-26T06:12:42.775Z,29.8
2022-08-26T06:18:42.065Z,29.8
2022-08-26T06:24:32.201Z,29.8
2022-08-26T06:30:30.354Z,29.8
2022-08-26T06:36:18.585Z,29.8
2022-08-26T06:42:06.382Z,29.8
2022-08-26T06:47:50.674Z,36.5
2022-08-26T06:53:35.365Z,34.6
2022-08-26T06:59:24.166Z,33.6
2022-08-26T07:05:24.250Z,32.9
2022-08-26T07:11:15.469Z,35.8
2022-08-26T07:17:16.980Z,39.3
2022-08-26T07:23:15.480Z,40.1
2022-08-26T07:29:01.713Z,39.9
2022-08-26T07:34:53.307Z,39.8
2022-08-26T07:40:50.142Z,39.8
2022-08-26T07:46:44.080Z,39.8
2022-08-26T07:52:45.590Z,39.9
2022-08-26T07:58:32.175Z,39.9
2022-08-26T08:04:29.517Z,40
2022-08-26T08:11:05.206Z,40.2
2022-08-26T08:16:32.182Z,40.4
2022-08-26T08:22:51.370Z,40.6
2022-08-26T08:28:40.374Z,41.1
2022-08-26T08:34:51.009Z,41.4
2022-08-26T08:40:38.968Z,41.8
2022-08-26T08:46:26.551Z,42.1
2022-08-26T08:52:12.265Z,42.6
2022-08-26T08:58:10.599Z,42.8
2022-08-26T09:03:56.592Z,43.2
2022-08-26T09:09:51.349Z,43.5
2022-08-26T09:15:46.658Z,43.8
2022-08-26T09:21:18.523Z,44.3
2022-08-26T09:27:22.142Z,45.3
2022-08-26T09:33:12.882Z,46.4
2022-08-26T09:39:01.884Z,47.1
2022-08-26T09:45:04.650Z,46.8
2022-08-26T09:51:02.785Z,47.2
2022-08-26T09:56:44.356Z,47
2022-08-26T10:02:29.618Z,47
2022-08-26T10:08:19.379Z,47.1
2022-08-26T10:14:02.677Z,47.1
2022-08-26T10:20:22.516Z,47.3
2022-08-26T10:26:15.570Z,48.1
2022-08-26T10:32:20.166Z,48.9
2022-08-26T10:38:39.673Z,48.6
2022-08-26T10:44:33.086Z,44.4
2022-08-26T10:50:19.963Z,44.4
2022-08-26T10:56:34.891Z,45.3
2022-08-26T11:02:24.315Z,46.9
2022-08-26T11:08:22.565Z,48.3
2022-08-26T11:14:15.453Z,49.1
2022-08-26T11:20:34.319Z,49.9
2022-08-26T11:26:55.858Z,49.6
2022-08-26T11:32:55.317Z,49.4
2022-08-26T11:38:47.441Z,49.8
2022-08-26T11:44:38.839Z,50.8
2022-08-26T11:50:24.646Z,51.1
2022-08-26T11:56:14.795Z,51.1
2022-08-26T12:07:42.619Z,52.4
2022-08-26T12:13:09.229Z,52.8
2022-08-26T12:18:46.063Z,53.1
2022-08-26T12:24:31.491Z,53.4
2022-08-26T12:30:42.719Z,53.6
2022-08-26T12:36:49.717Z,53.8
2022-08-26T12:42:18.835Z,53.9
2022-08-26T12:47:59.319Z,53.8
2022-08-26T12:53:36.078Z,54
2022-08-26T12:58:58.269Z,53.9
2022-08-26T13:04:45.899Z,54.2
2022-08-26T13:10:31.098Z,54.4
2022-08-26T13:16:05.088Z,54.6
2022-08-26T13:21:27.899Z,54.7
2022-08-26T13:27:14.718Z,54.8
2022-08-26T13:32:50.977Z,54.9
2022-08-26T13:38:33.049Z,54.8
2022-08-26T13:44:28.803Z,54.7
2022-08-26T13:50:07.346Z,54.1
2022-08-26T13:55:54.808Z,53.9
2022-08-26T14:01:36.550Z,53.5
2022-08-26T14:07:04.336Z,53
2022-08-26T14:12:44.463Z,52.6
2022-08-26T14:18:45.258Z,52.1
2022-08-26T14:24:52.024Z,51.8
2022-08-26T14:30:28.841Z,51.8
2022-08-26T14:36:06.463Z,51.6
2022-08-26T14:41:46.175Z,51
2022-08-26T14:47:50.411Z,50.5
2022-08-26T14:53:31.120Z,50.1
2022-08-26T14:59:10.561Z,49.8
2022-08-26T15:05:04.379Z,49.4
2022-08-26T15:10:42.104Z,49.1
2022-08-26T15:16:15.785Z,48.8
2022-08-26T15:21:53.501Z,48.4
2022-08-26T15:27:21.065Z,48.1
2022-08-26T15:33:03.423Z,47.7
2022-08-26T15:38:50.752Z,47.2
2022-08-26T15:44:53.064Z,46.8
2022-08-26T15:50:56.813Z,46.4
2022-08-26T15:56:43.446Z,45.9
2022-08-26T16:02:34.083Z,45.5
2022-08-26T16:08:11.292Z,45.1
2022-08-26T16:14:12.484Z,44.8
2022-08-26T16:19:54.769Z,44.4
2022-08-26T16:25:53.190Z,44.1
2022-08-26T16:31:36.017Z,43.7
2022-08-26T16:37:26.001Z,43.3
2022-08-26T16:43:08.689Z,41.9
2022-08-26T16:48:53.757Z,40.7
2022-08-26T16:54:34.151Z,39.9
2022-08-26T17:00:17.088Z,39.3
2022-08-26T17:05:56.185Z,38.8
2022-08-26T17:11:37.157Z,38.4
2022-08-26T17:17:33.066Z,38.1
2022-08-26T17:23:23.577Z,37.9
2022-08-26T17:28:51.178Z,37.6
2022-08-26T17:34:06.768Z,37.4
2022-08-26T17:39:44.685Z,37.2
2022-08-26T17:45:08.168Z,37
2022-08-26T17:50:54.668Z,36.9
2022-08-26T17:55:39.891Z,36.7
2022-08-26T18:01:44.036Z,36.6
2022-08-26T18:07:24.610Z,36.4
2022-08-26T18:12:49.222Z,36.3
2022-08-26T18:18:22.263Z,36.3
2022-08-26T18:23:54.798Z,36.1
2022-08-26T18:29:45.692Z,36
2022-08-26T18:35:26.290Z,35.9
2022-08-26T18:40:56.508Z,35.8
2022-08-26T18:46:21.987Z,35.8
2022-08-26T18:52:02.475Z,35.7
2022-08-26T18:57:41.022Z,35.6
2022-08-26T19:03:17.329Z,35.5
2022-08-26T19:08:51.982Z,35.4
2022-08-26T19:14:47.949Z,35.4
2022-08-26T19:20:30.530Z,35.3
2022-08-26T19:26:23.827Z,35.2
2022-08-26T19:32:07.281Z,35.1
2022-08-26T19:37:37.367Z,35.1
2022-08-26T19:43:16.594Z,35.1
2022-08-26T19:48:50.798Z,35
2022-08-26T19:54:32.429Z,34.9
2022-08-26T19:59:58.275Z,34.9
2022-08-26T20:05:45.031Z,34.8
2022-08-26T20:11:49.601Z,34.8
2022-08-26T20:17:29.313Z,34.8
2022-08-26T20:23:37.998Z,34.7
2022-08-26T20:29:07.443Z,34.6
2022-08-26T20:34:35.389Z,34.6
2022-08-26T20:40:16.518Z,34.6
2022-08-26T20:45:36.874Z,34.5
2022-08-26T20:51:31.296Z,34.5
2022-08-26T20:56:57.173Z,34.4
2022-08-26T21:02:31.491Z,34.4
2022-08-26T21:08:14.617Z,34.4
2022-08-26T21:14:01.455Z,34.3
2022-08-26T21:19:41.255Z,34.3
2022-08-26T21:25:26.622Z,34.3
2022-08-26T21:30:53.994Z,34.3
2022-08-26T21:36:32.422Z,34.2
2022-08-26T21:42:18.128Z,34.1
2022-08-26T21:48:05.848Z,34.1
2022-08-26T21:53:44.583Z,34.1
2022-08-26T21:59:25.401Z,34.1
2022-08-26T22:05:09.412Z,34
2022-08-26T22:10:17.541Z,34
2022-08-26T22:15:23.499Z,33.9
2022-08-26T22:21:06.001Z,33.9
2022-08-26T22:26:42.277Z,33.9
2022-08-26T22:32:27.181Z,33.9
2022-08-26T22:38:22.994Z,33.8
2022-08-26T22:44:06.068Z,33.8
2022-08-26T22:49:31.568Z,33.8
2022-08-26T22:55:14.389Z,33.8
2022-08-26T23:01:05.124Z,33.8
2022-08-26T23:06:27.597Z,33.7
2022-08-26T23:12:08.421Z,33.7
2022-08-26T23:17:31.802Z,33.6
2022-08-26T23:22:50.993Z,33.6
2022-08-26T23:28:03.909Z,33.6
2022-08-26T23:33:24.742Z,33.6
2022-08-26T23:39:10.994Z,33.6
2022-08-26T23:44:52.731Z,33.5
2022-08-26T23:50:31.675Z,33.5
2022-08-26T23:55:37.115Z,33.5
